Time;durP1;ratioP1;P1;durP2;ratioP2;P2;SDS_P1;SDS_P2;PMS_P1;PMS_P2;Temp;Humidity;BMP_temperature;BMP_pressure;BME280_temperature;BME280_humidity;BME280_pressure;Samples;Min_cycle;Max_cycle;Signal;HPM_P1;HPM_P2
2021/10/25 08:06:10;;;;;;;;;;;;;;;;;;5104686;28;20276;-78
2021/10/25 08:08:45;;;;;;;;;;;;;;;;;;5104725;28;19962;-81
2021/10/25 08:11:47;;;;;;;;;;;;;;;;;;5138575;27;19975;-81
2021/10/25 08:14:16;;;;;;;;;;;;;;;;;;5100514;28;19920;-80
2021/10/25 08:16:43;;;;;;;;;;;;;;;;;;5101329;28;19923;-80
2021/10/25 08:19:29;;;;;;;;;;;;;;;;;;5102449;28;20451;-83
2021/10/25 08:21:57;;;;;;;;;;;;;;;;;;5101241;28;19931;-79
2021/10/25 08:24:27;;;;;;;;;;;;;;;;;;5092366;28;20189;-80
2021/10/25 08:26:52;;;;;;;;;;;;;;;;;;5080073;28;19952;-80
2021/10/25 08:29:27;;;;;;;;;;;;;;;;;;5090084;28;19920;-78
2021/10/25 08:34:59;;;;;;;;;;;;;;;;;;5091707;28;19938;-88
2021/10/25 08:39:57;;;;;;;;;;;;;;;;;;5088409;28;19927;-79
2021/10/25 08:42:24;;;;;;;;;;;;;;;;;;5091346;28;19913;-83
2021/10/25 08:44:56;;;;;;;;;;;;;;;;;;5084408;28;19927;-84
2021/10/25 08:47:25;;;;;;;;;;;;;;;;;;5089016;28;19963;-79
2021/10/25 08:49:51;;;;;;;;;;;;;;;;;;5093748;28;19969;-86
2021/10/25 08:52:20;;;;;;;;;;;;;;;;;;5101240;28;20360;-91
2021/10/25 08:54:45;;;;;;;;;;;;;;;;;;5079012;28;19969;-89
2021/10/25 08:57:11;;;;;;;;;;;;;;;;;;5075924;28;20306;-87
2021/10/25 08:59:36;;;;;;;;;;;;;;;;;;5078073;28;19923;-89
2021/10/25 09:02:08;;;;;;;;;;;;;;;;;;5080099;28;19967;-82
2021/10/25 09:04:34;;;;;;;;;;;;;;;;;;5080587;28;19916;-80
2021/10/25 09:07:01;;;;;;;;;;;;;;;;;;5094308;28;19923;-79
2021/10/25 09:09:27;;;;;;;;;;;;;;;;;;5087223;28;20395;-80
2021/10/25 09:11:56;;;;;;;;;;;;;;;;;;5074874;28;19928;-77
2021/10/25 09:14:21;;;;;;;;;;;;;;;;;;5080973;28;19920;-77
2021/10/25 09:16:53;;;;;;;;;;;;;;;;;;5093291;28;19920;-81
2021/10/25 09:19:18;;;;;;;;;;;;;;;;;;5096591;28;20295;-80
2021/10/25 09:21:44;;;;;;;;;;;;;;;;;;5096056;28;19916;-90
2021/10/25 09:24:24;;;;;;;;;;;;;;;;;;5096324;28;19970;-81
2021/10/25 09:26:54;;;;;;;;;;;;;;;;;;5095047;28;19920;-79
2021/10/25 09:29:23;;;;;;;;;;;;;;;;;;5095717;28;19913;-79
2021/10/25 09:31:53;;;;;;;;;;;;;;;;;;5093757;28;19931;-90
2021/10/25 09:34:22;;;;;;;;;;;;;;;;;;5122360;27;19920;-77
2021/10/25 09:36:51;;;;;;;;;;;;;;;;;;5095149;28;19916;-82
2021/10/25 09:39:39;;;;;;;;;;;;;;;;;;5092912;28;19916;-82
2021/10/25 09:50:26;;;;;;;;;;;;;;;;;;5093682;28;19927;-90
2021/10/25 09:52:51;;;;;;;;;;;;;;;;;;5074620;28;19916;-78
2021/10/25 09:55:17;;;;;;;;;;;;;;;;;;5074664;28;19916;-77
2021/10/25 10:00:13;;;;;;;;;;;;;;;;;;5086231;28;20356;-78
2021/10/25 10:02:39;;;;;;;;;;;;;;;;;;5081954;28;19927;-79
2021/10/25 10:05:06;;;;;;;;;;;;;;;;;;5085625;28;19979;-80
2021/10/25 10:07:32;;;;;;;;;;;;;;;;;;5100481;28;19920;-80
2021/10/25 10:09:58;;;;;;;;;;;;;;;;;;5098970;28;19913;-77
2021/10/25 10:12:25;;;;;;;;;;;;;;;;;;5081884;28;19928;-84
2021/10/25 10:14:55;;;;;;;;;;;;;;;;;;5092436;28;19970;-85
2021/10/25 10:17:27;;;;;;;;;;;;;;;;;;5123608;27;20289;-86
2021/10/25 10:19:55;;;;;;;;;;;;;;;;;;5074335;28;20253;-78
2021/10/25 10:22:21;;;;;;;;;;;;;;;;;;5078721;28;19986;-88
2021/10/25 10:24:51;;;;;;;;;;;;;;;;;;5082645;28;19924;-78
2021/10/25 10:27:20;;;;;;;;;;;;;;;;;;5073758;28;20268;-79
2021/10/25 10:29:49;;;;;;;;;;;;;;;;;;5073598;28;20011;-79
2021/10/25 10:32:15;;;;;;;;;;;;;;;;;;5073663;28;19921;-78
2021/10/25 10:34:42;;;;;;;;;;;;;;;;;;5081727;28;19921;-78
2021/10/25 10:37:19;;;;;;;;;;;;;;;;;;5093760;28;19923;-78
2021/10/25 10:39:56;;;;;;;;;;;;;;;;;;5093704;28;19920;-78
2021/10/25 10:42:26;;;;;;;;;;;;;;;;;;5093816;28;19916;-77
2021/10/25 10:44:58;;;;;;;;;;;;;;;;;;5093616;28;19923;-85
2021/10/25 10:47:24;;;;;;;;;;;;;;;;;;5093732;28;19924;-77
2021/10/25 10:49:54;;;;;;;;;;;;;;;;;;5093493;28;20289;-76
2021/10/25 10:54:59;;;;;;;;;;;;;;;;;;5093270;28;19916;-77
2021/10/25 11:00:31;;;;;;;;;;;;;;;;;;5090766;28;19928;-79
2021/10/25 11:02:57;;;;;;;;;;;;;;;;;;5091440;28;20011;-81
2021/10/25 11:05:42;;;;;;;;;;;;;;;;;;5092908;28;19998;-82
2021/10/25 11:08:09;;;;;;;;;;;;;;;;;;5091574;28;19927;-84
2021/10/25 11:10:40;;;;;;;;;;;;;;;;;;5091650;28;19923;-81
2021/10/25 11:13:08;;;;;;;;;;;;;;;;;;5093552;28;20450;-82
2021/10/25 11:15:47;;;;;;;;;;;;;;;;;;5093362;28;20343;-80
2021/10/25 11:18:13;;;;;;;;;;;;;;;;;;5092116;28;20497;-88
2021/10/25 11:20:38;;;;;;;;;;;;;;;;;;5093400;28;19916;-80
2021/10/25 11:23:05;;;;;;;;;;;;;;;;;;5093196;28;19920;-79
2021/10/25 11:25:42;;;;;;;;;;;;;;;;;;5091703;28;19961;-79
2021/10/25 11:28:17;;;;;;;;;;;;;;;;;;5093691;28;20014;-82
2021/10/25 11:30:42;;;;;;;;;;;;;;;;;;5093394;28;19920;-85
2021/10/25 11:33:08;;;;;;;;;;;;;;;;;;5092989;28;19923;-80
2021/10/25 11:35:34;;;;;;;;;;;;;;;;;;5093455;28;19924;-87
2021/10/25 11:38:00;;;;;;;;;;;;;;;;;;5092788;28;19973;-79
2021/10/25 11:40:27;;;;;;;;;;;;;;;;;;5093067;28;19923;-78
2021/10/25 11:42:52;;;;;;;;;;;;;;;;;;5093197;28;20407;-80
2021/10/25 11:45:20;;;;;;;;;;;;;;;;;;5093292;28;19917;-79
2021/10/25 11:47:46;;;;;;;;;;;;;;;;;;5093073;28;19920;-78
2021/10/25 11:50:17;;;;;;;;;;;;;;;;;;5093155;28;20304;-77
2021/10/25 11:52:43;;;;;;;;;;;;;;;;;;5093081;28;20354;-78
2021/10/25 11:55:10;;;;;;;;;;;;;;;;;;5092729;28;19920;-77
2021/10/25 11:57:44;;;;;;;;;;;;;;;;;;5084588;28;19920;-77
2021/10/25 12:00:12;;;;;;;;;;;;;;;;;;5093663;28;19955;-78
2021/10/25 12:02:39;;;;;;;;;;;;;;;;;;5097279;28;19927;-78
2021/10/25 12:05:05;;;;;;;;;;;;;;;;;;5096766;28;19928;-81
2021/10/25 12:07:30;;;;;;;;;;;;;;;;;;5095625;28;20005;-80
2021/10/25 12:10:00;;;;;;;;;;;;;;;;;;5094505;28;19924;-79
2021/10/25 12:12:33;;;;;;;;;;;;;;;;;;5106035;28;19920;-79
2021/10/25 12:15:02;;;;;;;;;;;;;;;;;;5107401;28;19916;-78
2021/10/25 12:17:36;;;;;;;;;;;;;;;;;;5107524;28;19983;-79
2021/10/25 12:20:04;;;;;;;;;;;;;;;;;;5107066;28;19923;-78
2021/10/25 12:22:29;;;;;;;;;;;;;;;;;;5100218;28;19969;-78
2021/10/25 12:24:58;;;;;;;;;;;;;;;;;;5109271;28;19924;-79
2021/10/25 12:27:33;;;;;;;;;;;;;;;;;;5102377;28;19923;-78
2021/10/25 12:30:00;;;;;;;;;;;;;;;;;;5101436;28;20010;-78
2021/10/25 12:32:25;;;;;;;;;;;;;;;;;;5101901;28;19916;-78
2021/10/25 12:34:52;;;;;;;;;;;;;;;;;;5093946;28;19927;-81
2021/10/25 12:37:32;;;;;;;;;;;;;;;;;;5097378;28;19922;-81
2021/10/25 12:39:58;;;;;;;;;;;;;;;;;;5096658;28;19973;-79
2021/10/25 12:42:24;;;;;;;;;;;;;;;;;;5102686;28;19923;-79
2021/10/25 12:44:57;;;;;;;;;;;;;;;;;;5104228;28;19923;-79
2021/10/25 12:47:24;;;;;;;;;;;;;;;;;;5104862;28;20368;-80
2021/10/25 12:49:51;;;;;;;;;;;;;;;;;;5100482;28;19951;-78
2021/10/25 12:52:17;;;;;;;;;;;;;;;;;;5101735;28;19916;-81
2021/10/25 12:54:43;;;;;;;;;;;;;;;;;;5103489;28;19917;-78
2021/10/25 12:57:15;;;;;;;;;;;;;;;;;;5103113;28;19986;-78
2021/10/25 12:59:44;;;;;;;;;;;;;;;;;;5099610;28;20395;-81
2021/10/25 13:02:09;;;;;;;;;;;;;;;;;;5100637;28;20279;-80
2021/10/25 13:04:36;;;;;;;;;;;;;;;;;;5102467;28;19916;-79
2021/10/25 13:07:13;;;;;;;;;;;;;;;;;;5107575;28;19916;-79
2021/10/25 13:09:49;;;;;;;;;;;;;;;;;;5098797;28;19924;-79
2021/10/25 13:12:15;;;;;;;;;;;;;;;;;;5095490;28;20444;-79
2021/10/25 13:14:40;;;;;;;;;;;;;;;;;;5092300;28;19921;-80
2021/10/25 13:17:07;;;;;;;;;;;;;;;;;;5094702;28;20073;-80
2021/10/25 13:19:33;;;;;;;;;;;;;;;;;;5083200;28;20049;-82
2021/10/25 13:21:59;;;;;;;;;;;;;;;;;;5101875;28;19912;-80
2021/10/25 13:24:24;;;;;;;;;;;;;;;;;;5101266;28;20045;-81
2021/10/25 13:26:51;;;;;;;;;;;;;;;;;;5101168;28;19955;-80
2021/10/25 13:29:19;;;;;;;;;;;;;;;;;;5101138;28;19951;-80
2021/10/25 13:31:45;;;;;;;;;;;;;;;;;;5100698;28;20605;-78
2021/10/25 13:34:18;;;;;;;;;;;;;;;;;;5101461;28;19926;-79
2021/10/25 13:36:44;;;;;;;;;;;;;;;;;;5102360;28;20378;-81
2021/10/25 13:39:21;;;;;;;;;;;;;;;;;;5099468;28;20007;-79
2021/10/25 13:41:52;;;;;;;;;;;;;;;;;;5100560;28;19973;-80
2021/10/25 13:44:18;;;;;;;;;;;;;;;;;;5100145;28;19924;-80
2021/10/25 13:46:43;;;;;;;;;;;;;;;;;;5095255;28;19920;-80
2021/10/25 13:49:09;;;;;;;;;;;;;;;;;;5095112;28;20269;-79
2021/10/25 13:51:35;;;;;;;;;;;;;;;;;;5095230;28;19920;-79
2021/10/25 13:54:00;;;;;;;;;;;;;;;;;;5093787;28;19920;-79
2021/10/25 13:56:26;;;;;;;;;;;;;;;;;;5087811;28;19936;-80
2021/10/25 13:58:51;;;;;;;;;;;;;;;;;;5087559;28;20007;-79
2021/10/25 14:01:17;;;;;;;;;;;;;;;;;;5078828;28;19916;-83
2021/10/25 14:03:44;;;;;;;;;;;;;;;;;;5080114;28;20289;-81
2021/10/25 14:06:11;;;;;;;;;;;;;;;;;;5095300;28;20324;-80
2021/10/25 14:08:37;;;;;;;;;;;;;;;;;;5095867;28;19927;-80
2021/10/25 14:11:03;;;;;;;;;;;;;;;;;;5089886;28;19924;-83
2021/10/25 14:13:41;;;;;;;;;;;;;;;;;;5125659;27;19924;-84
2021/10/25 14:18:35;;;;;;;;;;;;;;;;;;5098311;28;19928;-80
2021/10/25 14:21:04;;;;;;;;;;;;;;;;;;5096697;28;21276;-79
2021/10/25 14:23:29;;;;;;;;;;;;;;;;;;5100869;28;19920;-81
2021/10/25 14:25:55;;;;;;;;;;;;;;;;;;5112376;28;19923;-79
2021/10/25 14:28:20;;;;;;;;;;;;;;;;;;5096221;28;19951;-78
2021/10/25 14:30:47;;;;;;;;;;;;;;;;;;5095239;28;19920;-79
2021/10/25 14:33:12;;;;;;;;;;;;;;;;;;5095164;28;20387;-78
2021/10/25 14:35:38;;;;;;;;;;;;;;;;;;5092508;28;19920;-78
2021/10/25 14:38:07;;;;;;;;;;;;;;;;;;5093184;28;19928;-78
2021/10/25 14:43:34;;;;;;;;;;;;;;;;;;5051585;28;19917;-79
2021/10/25 14:46:07;;;;;;;;;;;;;;;;;;5053704;28;20288;-80
2021/10/25 14:48:54;;;;;;;;;;;;;;;;;;5053690;28;19917;-80
2021/10/25 14:54:16;;;;;;;;;;;;;;;;;;5052138;28;19958;-79
2021/10/25 14:56:42;;;;;;;;;;;;;;;;;;5052596;28;19917;-81
2021/10/25 14:59:07;;;;;;;;;;;;;;;;;;5052605;28;19916;-80
2021/10/25 15:01:33;;;;;;;;;;;;;;;;;;5052437;28;19917;-83
2021/10/25 15:03:59;;;;;;;;;;;;;;;;;;5051692;28;19944;-80
2021/10/25 15:06:24;;;;;;;;;;;;;;;;;;5051555;28;20428;-80
2021/10/25 15:08:50;;;;;;;;;;;;;;;;;;5050948;28;20011;-82
2021/10/25 15:11:15;;;;;;;;;;;;;;;;;;5050560;28;20078;-84
2021/10/25 15:13:41;;;;;;;;;;;;;;;;;;5046003;28;19925;-82
2021/10/25 15:16:07;;;;;;;;;;;;;;;;;;5042113;28;19924;-82
2021/10/25 15:18:32;;;;;;;;;;;;;;;;;;5048063;28;19921;-83
2021/10/25 15:20:57;;;;;;;;;;;;;;;;;;5101582;28;19920;-81
2021/10/25 15:23:23;;;;;;;;;;;;;;;;;;5086615;28;19920;-80
2021/10/25 15:25:55;;;;;;;;;;;;;;;;;;5089349;28;20335;-83
2021/10/25 15:28:20;;;;;;;;;;;;;;;;;;5083023;28;19970;-80
2021/10/25 15:30:46;;;;;;;;;;;;;;;;;;5093316;28;19920;-79
2021/10/25 15:33:12;;;;;;;;;;;;;;;;;;5092851;28;19954;-80
2021/10/25 15:35:38;;;;;;;;;;;;;;;;;;5094694;28;19966;-80
2021/10/25 15:38:04;;;;;;;;;;;;;;;;;;5099921;28;19952;-80
2021/10/25 15:40:30;;;;;;;;;;;;;;;;;;5093536;28;19920;-79
2021/10/25 15:42:55;;;;;;;;;;;;;;;;;;5092280;28;19923;-79
2021/10/25 15:45:21;;;;;;;;;;;;;;;;;;5093926;28;20284;-79
2021/10/25 15:47:46;;;;;;;;;;;;;;;;;;5093446;28;19924;-79
2021/10/25 15:50:12;;;;;;;;;;;;;;;;;;5092704;28;20322;-79
2021/10/25 15:52:38;;;;;;;;;;;;;;;;;;5097414;28;19927;-80
2021/10/25 15:55:04;;;;;;;;;;;;;;;;;;5110601;28;19924;-80
2021/10/25 15:57:30;;;;;;;;;;;;;;;;;;5105344;28;19954;-79
2021/10/25 16:00:00;;;;;;;;;;;;;;;;;;5106072;28;19955;-79
2021/10/25 16:02:26;;;;;;;;;;;;;;;;;;5093473;28;19923;-80
2021/10/25 16:04:52;;;;;;;;;;;;;;;;;;5088220;28;19920;-80
2021/10/25 16:07:18;;;;;;;;;;;;;;;;;;5093093;28;19942;-80
2021/10/25 16:09:44;;;;;;;;;;;;;;;;;;5093092;28;19920;-80
2021/10/25 16:12:18;;;;;;;;;;;;;;;;;;5126396;28;19952;-80
2021/10/25 16:14:44;;;;;;;;;;;;;;;;;;5096101;28;19920;-79
2021/10/25 16:17:11;;;;;;;;;;;;;;;;;;5089572;28;20300;-82
2021/10/25 16:19:37;;;;;;;;;;;;;;;;;;5096922;28;20398;-81
2021/10/25 16:22:03;;;;;;;;;;;;;;;;;;5096979;28;19916;-80
2021/10/25 16:24:29;;;;;;;;;;;;;;;;;;5100325;28;19925;-82
2021/10/25 16:26:54;;;;;;;;;;;;;;;;;;5097163;28;19946;-81
2021/10/25 16:29:20;;;;;;;;;;;;;;;;;;5096643;28;19920;-81
2021/10/25 16:31:45;;;;;;;;;;;;;;;;;;5096622;28;19916;-83
2021/10/25 16:34:11;;;;;;;;;;;;;;;;;;5096466;28;19966;-80
2021/10/25 16:36:37;;;;;;;;;;;;;;;;;;5096518;28;19924;-80
2021/10/25 16:39:04;;;;;;;;;;;;;;;;;;5096474;28;20394;-82
2021/10/25 16:41:31;;;;;;;;;;;;;;;;;;5096400;28;20360;-81
2021/10/25 16:43:56;;;;;;;;;;;;;;;;;;5096301;28;20380;-80
2021/10/25 16:46:22;;;;;;;;;;;;;;;;;;5095135;28;19988;-81
2021/10/25 16:48:48;;;;;;;;;;;;;;;;;;5096249;28;19926;-82
2021/10/25 16:51:21;;;;;;;;;;;;;;;;;;5093661;28;19959;-83
2021/10/25 16:54:30;;;;;;;;;;;;;;;;;;5094114;28;19920;-80
2021/10/25 17:09:16;;;;;;;;;;;;;;;;;;5097849;28;19920;-84
2021/10/25 17:09:44;;;;;;;;;;;;;;;;;;5092944;28;20388;-80
2021/10/25 17:12:10;;;;;;;;;;;;;;;;;;5095047;28;19930;-80
2021/10/25 17:14:37;;;;;;;;;;;;;;;;;;5092443;28;20006;-81
2021/10/25 17:17:02;;;;;;;;;;;;;;;;;;5095570;28;20007;-80
2021/10/25 17:19:28;;;;;;;;;;;;;;;;;;5091313;28;20430;-80
2021/10/25 17:21:54;;;;;;;;;;;;;;;;;;5096493;28;19912;-81
2021/10/25 17:24:19;;;;;;;;;;;;;;;;;;5095725;28;20011;-81
2021/10/25 17:26:44;;;;;;;;;;;;;;;;;;5096282;28;19916;-81
2021/10/25 17:29:11;;;;;;;;;;;;;;;;;;5094397;28;19961;-80
2021/10/25 17:31:41;;;;;;;;;;;;;;;;;;5094385;28;19916;-80
2021/10/25 17:34:08;;;;;;;;;;;;;;;;;;5095449;28;20284;-83
2021/10/25 17:36:33;;;;;;;;;;;;;;;;;;5100443;28;20291;-81
2021/10/25 17:38:58;;;;;;;;;;;;;;;;;;5097071;28;19916;-81
2021/10/25 17:41:28;;;;;;;;;;;;;;;;;;5097173;28;19920;-81
2021/10/25 17:43:54;;;;;;;;;;;;;;;;;;5097830;28;19916;-80
2021/10/25 17:46:19;;;;;;;;;;;;;;;;;;5100387;28;20268;-81
2021/10/25 17:48:45;;;;;;;;;;;;;;;;;;5105243;28;20364;-81
2021/10/25 17:51:10;;;;;;;;;;;;;;;;;;5107371;28;20325;-81
2021/10/25 17:53:36;;;;;;;;;;;;;;;;;;5105673;28;19917;-81
2021/10/25 17:56:04;;;;;;;;;;;;;;;;;;5111471;28;19924;-79
2021/10/25 17:58:30;;;;;;;;;;;;;;;;;;5102192;28;19923;-79
2021/10/25 18:00:56;;;;;;;;;;;;;;;;;;5104667;28;19920;-80
2021/10/25 18:03:23;;;;;;;;;;;;;;;;;;5103462;28;19924;-82
2021/10/25 18:05:48;;;;;;;;;;;;;;;;;;5101775;28;19924;-79
2021/10/25 18:08:16;;;;;;;;;;;;;;;;;;5074876;28;20292;-80
2021/10/25 18:10:42;;;;;;;;;;;;;;;;;;5097532;28;19954;-79
2021/10/25 18:13:08;;;;;;;;;;;;;;;;;;5095364;28;20372;-79
2021/10/25 18:15:38;;;;;;;;;;;;;;;;;;5099149;28;19928;-77
2021/10/25 18:18:08;;;;;;;;;;;;;;;;;;5090881;28;21026;-78
2021/10/25 18:20:37;;;;;;;;;;;;;;;;;;5097114;28;19916;-78
2021/10/25 18:23:04;;;;;;;;;;;;;;;;;;5098932;28;19938;-78
2021/10/25 18:25:33;;;;;;;;;;;;;;;;;;5097526;28;19920;-79
2021/10/25 18:27:59;;;;;;;;;;;;;;;;;;5100536;28;19916;-79
2021/10/25 18:30:25;;;;;;;;;;;;;;;;;;5129986;27;20786;-79
2021/10/25 18:32:50;;;;;;;;;;;;;;;;;;5095696;28;19920;-80
2021/10/25 18:35:16;;;;;;;;;;;;;;;;;;5095477;28;19923;-81
2021/10/25 18:37:42;;;;;;;;;;;;;;;;;;5095489;28;19920;-81
2021/10/25 18:40:07;;;;;;;;;;;;;;;;;;5100923;28;20002;-78
2021/10/25 18:42:33;;;;;;;;;;;;;;;;;;5107028;28;19931;-79
2021/10/25 18:44:58;;;;;;;;;;;;;;;;;;5104806;28;19920;-79
2021/10/25 18:47:25;;;;;;;;;;;;;;;;;;5106461;28;19924;-83
2021/10/25 18:49:51;;;;;;;;;;;;;;;;;;5104294;28;19916;-79
2021/10/25 18:52:16;;;;;;;;;;;;;;;;;;5106527;28;20351;-78
2021/10/25 18:54:45;;;;;;;;;;;;;;;;;;5105343;28;19920;-78
2021/10/25 18:57:11;;;;;;;;;;;;;;;;;;5103392;28;19939;-80
2021/10/25 18:59:36;;;;;;;;;;;;;;;;;;5107114;28;20439;-78
2021/10/25 19:02:08;;;;;;;;;;;;;;;;;;5103592;28;20375;-79
2021/10/25 19:04:34;;;;;;;;;;;;;;;;;;5102232;28;19916;-80
2021/10/25 19:06:59;;;;;;;;;;;;;;;;;;5103835;28;19965;-79
2021/10/25 19:09:25;;;;;;;;;;;;;;;;;;5103030;28;19916;-84
2021/10/25 19:11:50;;;;;;;;;;;;;;;;;;5102286;28;20299;-80
2021/10/25 19:14:16;;;;;;;;;;;;;;;;;;5103306;28;20260;-81
2021/10/25 19:16:42;;;;;;;;;;;;;;;;;;5101168;28;19915;-80
2021/10/25 19:19:08;;;;;;;;;;;;;;;;;;5099043;28;20006;-80
2021/10/25 19:21:38;;;;;;;;;;;;;;;;;;5102676;28;20403;-79
2021/10/25 19:24:04;;;;;;;;;;;;;;;;;;5100843;28;19968;-79
2021/10/25 19:26:29;;;;;;;;;;;;;;;;;;5103980;28;19920;-78
2021/10/25 19:28:55;;;;;;;;;;;;;;;;;;5102718;28;19916;-80
2021/10/25 19:31:21;;;;;;;;;;;;;;;;;;5102305;28;20413;-81
2021/10/25 19:33:47;;;;;;;;;;;;;;;;;;5100488;28;20014;-79
2021/10/25 19:36:14;;;;;;;;;;;;;;;;;;5102661;28;20439;-84
2021/10/25 19:38:40;;;;;;;;;;;;;;;;;;5092608;28;19916;-82
2021/10/25 19:41:05;;;;;;;;;;;;;;;;;;5092593;28;20342;-79
2021/10/25 19:43:31;;;;;;;;;;;;;;;;;;5091500;28;19927;-80
2021/10/25 19:45:56;;;;;;;;;;;;;;;;;;5091166;28;19916;-81
2021/10/25 19:48:22;;;;;;;;;;;;;;;;;;5092583;28;19950;-83
2021/10/25 19:50:53;;;;;;;;;;;;;;;;;;5093302;28;19963;-81
2021/10/25 19:53:19;;;;;;;;;;;;;;;;;;5097230;28;19961;-81
2021/10/25 19:55:44;;;;;;;;;;;;;;;;;;5097115;28;19963;-79
2021/10/25 19:58:10;;;;;;;;;;;;;;;;;;5097077;28;19960;-80
2021/10/25 20:00:35;;;;;;;;;;;;;;;;;;5097038;28;20387;-80
2021/10/25 20:03:01;;;;;;;;;;;;;;;;;;5096989;28;20291;-80
2021/10/25 20:05:26;;;;;;;;;;;;;;;;;;5096969;28;20035;-79
2021/10/25 20:07:52;;;;;;;;;;;;;;;;;;5096710;28;20455;-80
2021/10/25 20:10:17;;;;;;;;;;;;;;;;;;5095466;28;20405;-80
2021/10/25 20:12:43;;;;;;;;;;;;;;;;;;5096382;28;20280;-79
2021/10/25 20:15:10;;;;;;;;;;;;;;;;;;5096143;28;19963;-79
2021/10/25 20:17:35;;;;;;;;;;;;;;;;;;5096179;28;19923;-79
2021/10/25 20:20:01;;;;;;;;;;;;;;;;;;5091134;28;20003;-79
2021/10/25 20:22:27;;;;;;;;;;;;;;;;;;5096398;28;20363;-78
2021/10/25 20:24:52;;;;;;;;;;;;;;;;;;5094478;28;19997;-79
2021/10/25 20:27:22;;;;;;;;;;;;;;;;;;5096272;28;19920;-81
2021/10/25 20:29:49;;;;;;;;;;;;;;;;;;5096597;28;19923;-79
2021/10/25 20:32:14;;;;;;;;;;;;;;;;;;5096489;28;19950;-79
2021/10/25 20:34:40;;;;;;;;;;;;;;;;;;5096488;28;19978;-79
2021/10/25 20:37:05;;;;;;;;;;;;;;;;;;5095100;28;19923;-79
2021/10/25 20:39:31;;;;;;;;;;;;;;;;;;5096356;28;19916;-80
2021/10/25 20:41:56;;;;;;;;;;;;;;;;;;5095009;28;19962;-80
2021/10/25 20:44:22;;;;;;;;;;;;;;;;;;5096562;28;20011;-79
2021/10/25 20:46:47;;;;;;;;;;;;;;;;;;5096202;28;19916;-79
2021/10/25 20:49:15;;;;;;;;;;;;;;;;;;5096283;28;19920;-80
2021/10/25 20:51:40;;;;;;;;;;;;;;;;;;5096100;28;20031;-80
2021/10/25 20:54:06;;;;;;;;;;;;;;;;;;5096104;28;19951;-80
2021/10/25 20:56:31;;;;;;;;;;;;;;;;;;5095851;28;19926;-79
2021/10/25 20:58:57;;;;;;;;;;;;;;;;;;5095963;28;20382;-79
2021/10/25 21:01:22;;;;;;;;;;;;;;;;;;5095538;28;19923;-80
2021/10/25 21:03:55;;;;;;;;;;;;;;;;;;5095688;28;19923;-79
2021/10/25 21:06:21;;;;;;;;;;;;;;;;;;5095770;28;20376;-79
2021/10/25 21:08:47;;;;;;;;;;;;;;;;;;5095853;28;19924;-82
2021/10/25 21:11:13;;;;;;;;;;;;;;;;;;5094558;28;19920;-78
2021/10/25 21:13:38;;;;;;;;;;;;;;;;;;5095027;28;19939;-79
2021/10/25 21:16:04;;;;;;;;;;;;;;;;;;5093783;28;19916;-82
2021/10/25 21:18:29;;;;;;;;;;;;;;;;;;5094955;28;20295;-81
2021/10/25 21:20:55;;;;;;;;;;;;;;;;;;5095485;28;19916;-82
2021/10/25 21:23:21;;;;;;;;;;;;;;;;;;5095584;28;19985;-79
2021/10/25 21:25:46;;;;;;;;;;;;;;;;;;5095400;28;19924;-80
2021/10/25 21:28:12;;;;;;;;;;;;;;;;;;5095468;28;19917;-80
2021/10/25 21:30:37;;;;;;;;;;;;;;;;;;5095410;28;19920;-81
2021/10/25 21:33:03;;;;;;;;;;;;;;;;;;5095350;28;19920;-80
2021/10/25 21:35:29;;;;;;;;;;;;;;;;;;5095178;28;19920;-79
2021/10/25 21:37:54;;;;;;;;;;;;;;;;;;5095265;28;20372;-79
2021/10/25 21:40:20;;;;;;;;;;;;;;;;;;5095170;28;19916;-80
2021/10/25 21:42:45;;;;;;;;;;;;;;;;;;5095220;28;19923;-80
2021/10/25 21:45:11;;;;;;;;;;;;;;;;;;5095071;28;19920;-80
2021/10/25 21:47:36;;;;;;;;;;;;;;;;;;5094988;28;19916;-79
2021/10/25 21:50:03;;;;;;;;;;;;;;;;;;5093778;28;19923;-79
2021/10/25 21:52:29;;;;;;;;;;;;;;;;;;5095034;28;20029;-80
2021/10/25 21:54:54;;;;;;;;;;;;;;;;;;5094812;28;19928;-80
2021/10/25 21:57:20;;;;;;;;;;;;;;;;;;5094857;28;20314;-79
2021/10/25 21:59:45;;;;;;;;;;;;;;;;;;5094663;28;20433;-80
2021/10/25 22:02:11;;;;;;;;;;;;;;;;;;5094710;28;19922;-80
2021/10/25 22:04:36;;;;;;;;;;;;;;;;;;5094750;28;19939;-82
2021/10/25 22:07:02;;;;;;;;;;;;;;;;;;5094987;28;19916;-81
2021/10/25 22:09:27;;;;;;;;;;;;;;;;;;5094862;28;19916;-80
2021/10/25 22:11:53;;;;;;;;;;;;;;;;;;5097294;28;19927;-79
2021/10/25 22:14:18;;;;;;;;;;;;;;;;;;5102290;28;19984;-82
2021/10/25 22:16:44;;;;;;;;;;;;;;;;;;5105998;28;19912;-80
2021/10/25 22:19:09;;;;;;;;;;;;;;;;;;5098636;28;19916;-78
2021/10/25 22:21:35;;;;;;;;;;;;;;;;;;5094623;28;20017;-79
2021/10/25 22:24:00;;;;;;;;;;;;;;;;;;5094506;28;20425;-81
2021/10/25 22:26:26;;;;;;;;;;;;;;;;;;5094281;28;19917;-80
2021/10/25 22:28:51;;;;;;;;;;;;;;;;;;5094329;28;19960;-80
2021/10/25 22:31:16;;;;;;;;;;;;;;;;;;5094191;28;20303;-83
2021/10/25 22:33:44;;;;;;;;;;;;;;;;;;5094212;28;20384;-82
2021/10/25 22:36:10;;;;;;;;;;;;;;;;;;5094167;28;19916;-80
2021/10/25 22:38:35;;;;;;;;;;;;;;;;;;5092589;28;19916;-80
2021/10/25 22:41:01;;;;;;;;;;;;;;;;;;5094157;28;20380;-79
2021/10/25 22:43:26;;;;;;;;;;;;;;;;;;5092701;28;19923;-80
2021/10/25 22:45:51;;;;;;;;;;;;;;;;;;5093923;28;19923;-79
2021/10/25 22:48:17;;;;;;;;;;;;;;;;;;5094028;28;20352;-80
2021/10/25 22:50:43;;;;;;;;;;;;;;;;;;5093842;28;19928;-80
2021/10/25 22:53:09;;;;;;;;;;;;;;;;;;5093882;28;19950;-79
2021/10/25 22:55:34;;;;;;;;;;;;;;;;;;5093734;28;19928;-79
2021/10/25 22:58:00;;;;;;;;;;;;;;;;;;5093864;28;19916;-80
2021/10/25 23:00:25;;;;;;;;;;;;;;;;;;5092464;28;19916;-79
2021/10/25 23:02:51;;;;;;;;;;;;;;;;;;5093635;28;19916;-80
2021/10/25 23:05:16;;;;;;;;;;;;;;;;;;5093482;28;19959;-82
2021/10/25 23:07:42;;;;;;;;;;;;;;;;;;5093548;28;19948;-80
2021/10/25 23:10:09;;;;;;;;;;;;;;;;;;5093350;28;19916;-82
2021/10/25 23:12:35;;;;;;;;;;;;;;;;;;5093486;28;20288;-80
2021/10/25 23:15:00;;;;;;;;;;;;;;;;;;5093533;28;19927;-80
2021/10/25 23:17:25;;;;;;;;;;;;;;;;;;5093437;28;19920;-80
2021/10/25 23:19:51;;;;;;;;;;;;;;;;;;5093740;28;19925;-80
2021/10/25 23:22:16;;;;;;;;;;;;;;;;;;5093408;28;19923;-80
2021/10/25 23:24:42;;;;;;;;;;;;;;;;;;5093391;28;20015;-83
2021/10/25 23:27:07;;;;;;;;;;;;;;;;;;5092849;28;19962;-83
2021/10/25 23:29:33;;;;;;;;;;;;;;;;;;5093473;28;20360;-82
2021/10/25 23:31:59;;;;;;;;;;;;;;;;;;5093322;28;20355;-81
2021/10/25 23:34:24;;;;;;;;;;;;;;;;;;5093396;28;19920;-80
2021/10/25 23:36:51;;;;;;;;;;;;;;;;;;5093298;28;20264;-83
2021/10/25 23:39:16;;;;;;;;;;;;;;;;;;5093268;28;19922;-80
2021/10/25 23:41:42;;;;;;;;;;;;;;;;;;5093223;28;20353;-83
2021/10/25 23:44:07;;;;;;;;;;;;;;;;;;5093448;28;20309;-83
2021/10/25 23:46:33;;;;;;;;;;;;;;;;;;5093256;28;19920;-83
2021/10/25 23:48:58;;;;;;;;;;;;;;;;;;5093279;28;19916;-81
2021/10/25 23:51:24;;;;;;;;;;;;;;;;;;5093168;28;20007;-84
2021/10/25 23:53:49;;;;;;;;;;;;;;;;;;5091821;28;19923;-80
2021/10/25 23:56:15;;;;;;;;;;;;;;;;;;5093099;28;19931;-79
2021/10/25 23:58:41;;;;;;;;;;;;;;;;;;5093077;28;19923;-80
